Time;durP1;ratioP1;P1;durP2;ratioP2;P2;SDS_P1;SDS_P2;PMS_P1;PMS_P2;Temp;Humidity;BMP_temperature;BMP_pressure;BME280_temperature;BME280_humidity;BME280_pressure;Samples;Min_cycle;Max_cycle;Signal;HPM_P1;HPM_P2
2023/02/22 00:01:00;;;;;;;104.60;38.53;;;;;;;;;;5094032;28;20044;-69
2023/02/22 00:03:31;;;;;;;97.72;37.13;;;;;;;;;;5095412;28;20070;-69
2023/02/22 00:05:58;;;;;;;100.65;37.70;;;;;;;;;;5096063;28;21116;-69
2023/02/22 00:08:29;;;;;;;106.22;38.85;;;;;;;;;;5075760;28;21877;-69
2023/02/22 00:10:57;;;;;;;103.60;36.78;;;;;;;;;;5093919;28;20066;-69
2023/02/22 00:13:23;;;;;;;103.28;37.15;;;;;;;;;;5074286;28;20483;-69
2023/02/22 00:15:49;;;;;;;97.78;37.60;;;;;;;;;;5090738;28;20055;-69
2023/02/22 00:18:17;;;;;;;102.50;37.20;;;;;;;;;;5078852;28;20043;-69
2023/02/22 00:20:43;;;;;;;107.20;38.40;;;;;;;;;;5082763;28;20052;-69
2023/02/22 00:23:17;;;;;;;100.50;38.25;;;;;;;;;;5096453;28;20075;-69
2023/02/22 00:25:44;;;;;;;107.93;38.10;;;;;;;;;;5095286;28;20047;-69
2023/02/22 00:28:10;;;;;;;104.32;37.22;;;;;;;;;;5077257;28;20051;-68
2023/02/22 00:30:37;;;;;;;107.30;39.20;;;;;;;;;;5095736;28;20039;-68
2023/02/22 00:33:04;;;;;;;111.22;38.08;;;;;;;;;;5082758;28;20028;-68
2023/02/22 00:35:31;;;;;;;108.95;38.03;;;;;;;;;;5097613;28;20116;-68
2023/02/22 00:37:58;;;;;;;106.53;37.20;;;;;;;;;;5080837;28;20036;-68
2023/02/22 00:40:26;;;;;;;109.13;37.72;;;;;;;;;;5096518;28;20040;-68
2023/02/22 00:42:52;;;;;;;109.88;38.72;;;;;;;;;;5095942;28;20703;-68
2023/02/22 00:45:20;;;;;;;118.85;39.40;;;;;;;;;;5080335;28;20050;-68
2023/02/22 00:47:46;;;;;;;118.18;39.53;;;;;;;;;;5079834;28;20040;-68
2023/02/22 00:50:13;;;;;;;114.20;38.72;;;;;;;;;;5079891;28;20122;-69
2023/02/22 00:52:39;;;;;;;107.95;38.95;;;;;;;;;;5076074;28;20080;-68
2023/02/22 00:55:07;;;;;;;112.93;40.13;;;;;;;;;;5097054;28;20032;-68
2023/02/22 00:57:33;;;;;;;120.88;38.78;;;;;;;;;;5095813;28;20043;-68
2023/02/22 01:00:10;;;;;;;118.65;39.17;;;;;;;;;;5089004;28;20075;-68
2023/02/22 01:02:37;;;;;;;115.03;36.90;;;;;;;;;;5080287;28;20103;-68
2023/02/22 01:05:04;;;;;;;119.72;38.85;;;;;;;;;;5094505;28;20457;-68
2023/02/22 01:07:30;;;;;;;119.53;38.28;;;;;;;;;;5094781;28;20108;-68
2023/02/22 01:09:56;;;;;;;128.52;38.17;;;;;;;;;;5094541;28;20513;-68
2023/02/22 01:12:23;;;;;;;115.25;37.63;;;;;;;;;;5093445;28;20047;-68
2023/02/22 01:14:49;;;;;;;111.15;37.42;;;;;;;;;;5095289;28;20118;-68
2023/02/22 01:17:15;;;;;;;119.20;38.63;;;;;;;;;;5089506;28;21258;-68
2023/02/22 01:19:41;;;;;;;120.55;39.25;;;;;;;;;;5075184;28;20043;-68
2023/02/22 01:22:08;;;;;;;113.55;38.28;;;;;;;;;;5089915;28;20048;-68
2023/02/22 01:24:34;;;;;;;113.97;36.95;;;;;;;;;;5095435;28;20183;-68
2023/02/22 01:27:01;;;;;;;120.28;36.97;;;;;;;;;;5090492;28;20071;-68
2023/02/22 01:29:27;;;;;;;109.40;35.38;;;;;;;;;;5088874;28;20126;-68
2023/02/22 01:31:55;;;;;;;110.25;35.33;;;;;;;;;;5094920;28;20335;-68
2023/02/22 01:34:22;;;;;;;114.93;34.70;;;;;;;;;;5091558;28;20521;-68
2023/02/22 01:36:48;;;;;;;107.47;35.75;;;;;;;;;;5090620;28;20040;-68
2023/02/22 01:39:16;;;;;;;105.40;33.90;;;;;;;;;;5090996;28;20036;-68
2023/02/22 01:41:44;;;;;;;100.38;31.88;;;;;;;;;;5091597;28;20728;-68
2023/02/22 01:44:20;;;;;;;99.65;32.80;;;;;;;;;;5073940;28;20087;-68
2023/02/22 01:46:46;;;;;;;100.05;32.40;;;;;;;;;;5092929;28;20051;-68
2023/02/22 01:49:14;;;;;;;90.20;31.88;;;;;;;;;;5072512;28;21641;-68
2023/02/22 01:51:48;;;;;;;94.10;31.02;;;;;;;;;;5091471;28;20116;-68
2023/02/22 01:54:23;;;;;;;90.28;29.10;;;;;;;;;;5090675;28;20040;-68
2023/02/22 01:56:53;;;;;;;88.85;29.27;;;;;;;;;;5071576;28;20044;-68
2023/02/22 01:59:20;;;;;;;82.85;27.88;;;;;;;;;;5074472;28;21440;-68
2023/02/22 02:01:47;;;;;;;77.30;25.98;;;;;;;;;;5089879;28;20054;-68
2023/02/22 02:04:17;;;;;;;78.00;26.65;;;;;;;;;;5093162;28;20047;-68
2023/02/22 02:06:43;;;;;;;77.50;27.02;;;;;;;;;;5091168;28;20036;-68
2023/02/22 02:09:13;;;;;;;75.78;26.23;;;;;;;;;;5087452;28;20058;-68
2023/02/22 02:11:41;;;;;;;77.05;26.23;;;;;;;;;;5091277;28;20048;-68
2023/02/22 02:14:08;;;;;;;73.57;25.48;;;;;;;;;;5073665;28;20051;-68
2023/02/22 02:16:40;;;;;;;67.55;23.50;;;;;;;;;;5090286;28;20058;-68
2023/02/22 02:19:10;;;;;;;68.43;23.83;;;;;;;;;;5096771;28;20036;-68
2023/02/22 02:21:48;;;;;;;71.97;24.30;;;;;;;;;;5077357;28;20051;-68
2023/02/22 02:24:27;;;;;;;70.47;23.85;;;;;;;;;;5093967;28;20044;-68
2023/02/22 02:26:59;;;;;;;73.45;25.13;;;;;;;;;;5092359;28;20032;-68
2023/02/22 02:29:36;;;;;;;70.50;24.70;;;;;;;;;;5095539;28;20143;-68
2023/02/22 02:32:10;;;;;;;74.80;25.05;;;;;;;;;;5080044;28;20451;-68
2023/02/22 02:34:55;;;;;;;64.28;23.60;;;;;;;;;;5093633;28;20119;-68
2023/02/22 02:37:32;;;;;;;69.53;24.30;;;;;;;;;;5094257;28;20075;-68
2023/02/22 02:40:10;;;;;;;73.43;24.40;;;;;;;;;;5076326;28;20380;-68
2023/02/22 02:42:41;;;;;;;68.90;24.33;;;;;;;;;;5093196;28;20464;-68
2023/02/22 02:45:10;;;;;;;71.05;23.80;;;;;;;;;;5078085;28;20596;-68
2023/02/22 02:47:39;;;;;;;67.63;22.90;;;;;;;;;;5091987;28;20040;-68
2023/02/22 02:50:06;;;;;;;67.28;23.92;;;;;;;;;;5094412;28;20471;-68
2023/02/22 02:52:33;;;;;;;69.50;23.73;;;;;;;;;;5072186;28;20050;-68
2023/02/22 02:55:01;;;;;;;68.60;25.70;;;;;;;;;;5095943;28;20066;-68
2023/02/22 02:57:27;;;;;;;73.93;24.85;;;;;;;;;;5094173;28;20044;-68
2023/02/22 02:59:53;;;;;;;75.75;25.05;;;;;;;;;;5097030;28;20112;-68
2023/02/22 03:02:40;;;;;;;71.25;24.60;;;;;;;;;;5096577;28;20047;-68
2023/02/22 03:05:07;;;;;;;87.65;27.23;;;;;;;;;;5096021;28;20036;-68
2023/02/22 03:07:41;;;;;;;74.10;26.23;;;;;;;;;;5097253;28;20149;-68
2023/02/22 03:10:12;;;;;;;76.75;26.70;;;;;;;;;;5095861;28;20050;-68
2023/02/22 03:12:48;;;;;;;79.57;26.02;;;;;;;;;;5073105;28;20900;-68
2023/02/22 03:15:24;;;;;;;84.93;24.73;;;;;;;;;;5094511;28;20032;-68
2023/02/22 03:17:54;;;;;;;82.00;26.83;;;;;;;;;;5091943;28;20635;-68
2023/02/22 03:20:30;;;;;;;78.07;24.90;;;;;;;;;;5092105;28;20040;-68
2023/02/22 03:23:00;;;;;;;86.88;25.83;;;;;;;;;;5091907;28;20086;-68
2023/02/22 03:25:32;;;;;;;82.72;25.30;;;;;;;;;;5094570;28;20039;-68
2023/02/22 03:28:02;;;;;;;82.57;27.42;;;;;;;;;;5090302;28;20519;-68
2023/02/22 03:30:35;;;;;;;86.72;27.38;;;;;;;;;;5073564;28;20495;-68
2023/02/22 03:33:07;;;;;;;83.05;25.30;;;;;;;;;;5094072;28;20062;-68
2023/02/22 03:35:36;;;;;;;85.63;27.17;;;;;;;;;;5091361;28;20059;-68
2023/02/22 03:38:05;;;;;;;88.90;27.08;;;;;;;;;;5092417;28;20031;-68
2023/02/22 03:40:34;;;;;;;83.68;26.70;;;;;;;;;;5093846;28;20051;-68
2023/02/22 03:43:04;;;;;;;85.75;26.60;;;;;;;;;;5074276;28;20055;-68
2023/02/22 03:45:31;;;;;;;86.95;27.65;;;;;;;;;;5073144;28;20050;-68
2023/02/22 03:48:01;;;;;;;86.28;26.70;;;;;;;;;;5074219;28;20036;-68
2023/02/22 03:50:30;;;;;;;83.15;26.08;;;;;;;;;;5092687;28;20153;-68
2023/02/22 03:52:57;;;;;;;90.57;28.10;;;;;;;;;;5075327;28;20042;-68
2023/02/22 03:55:24;;;;;;;89.10;26.60;;;;;;;;;;5075097;28;20062;-68
2023/02/22 03:57:52;;;;;;;84.60;26.95;;;;;;;;;;5076475;28;22399;-68
2023/02/22 04:00:21;;;;;;;88.03;26.67;;;;;;;;;;5092833;28;20046;-68
2023/02/22 04:02:47;;;;;;;89.72;26.88;;;;;;;;;;5097376;28;20471;-68
2023/02/22 04:05:13;;;;;;;79.13;26.02;;;;;;;;;;5091855;28;20136;-68
2023/02/22 04:07:40;;;;;;;83.60;26.17;;;;;;;;;;5091193;28;20044;-68
2023/02/22 04:10:07;;;;;;;83.45;24.90;;;;;;;;;;5096336;28;20055;-68
2023/02/22 04:12:34;;;;;;;79.65;25.45;;;;;;;;;;5096625;28;20440;-68
2023/02/22 04:15:01;;;;;;;76.63;25.23;;;;;;;;;;5097826;28;20036;-68
2023/02/22 04:17:27;;;;;;;86.65;26.92;;;;;;;;;;5095534;28;20044;-68
2023/02/22 04:19:53;;;;;;;75.32;24.42;;;;;;;;;;5094686;28;21536;-68
2023/02/22 04:22:19;;;;;;;69.70;23.25;;;;;;;;;;5090554;28;20036;-68
2023/02/22 04:24:45;;;;;;;63.95;23.77;;;;;;;;;;5092107;28;20040;-68
2023/02/22 04:27:11;;;;;;;56.88;21.05;;;;;;;;;;5092498;28;20042;-68
2023/02/22 04:29:38;;;;;;;53.95;21.00;;;;;;;;;;5075954;28;20054;-68
2023/02/22 04:32:04;;;;;;;58.08;21.48;;;;;;;;;;5080827;28;20040;-68
2023/02/22 04:34:30;;;;;;;54.72;19.50;;;;;;;;;;5093720;28;20135;-68
2023/02/22 04:36:56;;;;;;;52.65;20.48;;;;;;;;;;5075302;28;20040;-68
2023/02/22 04:39:22;;;;;;;47.92;18.33;;;;;;;;;;5077962;28;20055;-68
2023/02/22 04:41:48;;;;;;;49.10;19.35;;;;;;;;;;5075533;28;20054;-68
2023/02/22 04:44:15;;;;;;;48.08;19.98;;;;;;;;;;5073562;28;20075;-68
2023/02/22 04:46:41;;;;;;;43.65;20.00;;;;;;;;;;5089115;28;20680;-68
2023/02/22 04:49:07;;;;;;;44.25;18.85;;;;;;;;;;5069264;28;20497;-68
2023/02/22 04:51:35;;;;;;;42.03;19.27;;;;;;;;;;5073575;28;20564;-68
2023/02/22 04:54:01;;;;;;;42.45;18.88;;;;;;;;;;5091702;28;20051;-68
2023/02/22 04:56:27;;;;;;;34.85;17.23;;;;;;;;;;5093264;28;20448;-68
2023/02/22 04:58:53;;;;;;;36.33;18.33;;;;;;;;;;5091677;28;20192;-68
2023/02/22 05:01:20;;;;;;;34.60;17.02;;;;;;;;;;5090309;28;20095;-68
2023/02/22 05:03:46;;;;;;;33.72;16.55;;;;;;;;;;5090604;28;20150;-68
2023/02/22 05:06:12;;;;;;;34.90;17.35;;;;;;;;;;5092925;28;20039;-68
2023/02/22 05:08:38;;;;;;;39.22;17.48;;;;;;;;;;5078188;28;20480;-68
2023/02/22 05:11:05;;;;;;;34.85;17.40;;;;;;;;;;5092498;28;20089;-68
2023/02/22 05:13:31;;;;;;;37.60;18.42;;;;;;;;;;5077223;28;20090;-68
2023/02/22 05:15:57;;;;;;;42.03;18.58;;;;;;;;;;5091065;28;20043;-68
2023/02/22 05:18:23;;;;;;;38.00;18.00;;;;;;;;;;5090808;28;20043;-68
2023/02/22 05:20:49;;;;;;;38.72;18.88;;;;;;;;;;5093051;28;20093;-68
2023/02/22 05:23:15;;;;;;;41.13;19.33;;;;;;;;;;5091382;28;20036;-68
2023/02/22 05:25:42;;;;;;;38.20;18.38;;;;;;;;;;5073868;28;20051;-68
2023/02/22 05:28:10;;;;;;;42.85;18.42;;;;;;;;;;5093313;28;20035;-68
2023/02/22 05:30:38;;;;;;;38.95;18.52;;;;;;;;;;5092818;28;20050;-68
2023/02/22 05:33:04;;;;;;;42.30;18.77;;;;;;;;;;5076427;28;20051;-68
2023/02/22 05:35:30;;;;;;;37.72;16.95;;;;;;;;;;5095395;28;20073;-68
2023/02/22 05:37:58;;;;;;;40.13;19.23;;;;;;;;;;5091412;28;20105;-68
2023/02/22 05:40:25;;;;;;;37.72;19.30;;;;;;;;;;5089316;28;20040;-69
2023/02/22 05:42:52;;;;;;;40.92;19.98;;;;;;;;;;5075940;28;20060;-69
2023/02/22 05:45:20;;;;;;;43.30;20.83;;;;;;;;;;5095930;28;20100;-68
2023/02/22 05:47:46;;;;;;;41.83;20.75;;;;;;;;;;5056689;28;20507;-68
2023/02/22 05:50:13;;;;;;;42.17;21.55;;;;;;;;;;5094115;28;20112;-69
2023/02/22 05:52:39;;;;;;;42.60;21.73;;;;;;;;;;5074412;28;20121;-68
2023/02/22 05:55:05;;;;;;;41.25;20.67;;;;;;;;;;5092350;28;20494;-68
2023/02/22 05:57:31;;;;;;;43.65;21.58;;;;;;;;;;5092819;28;20040;-68
2023/02/22 05:59:58;;;;;;;41.30;22.67;;;;;;;;;;5091648;28;20051;-68
2023/02/22 06:02:24;;;;;;;47.03;23.58;;;;;;;;;;5089612;28;20052;-68
2023/02/22 06:04:50;;;;;;;48.85;25.90;;;;;;;;;;5094658;28;20043;-68
2023/02/22 06:07:16;;;;;;;49.55;25.45;;;;;;;;;;5096116;28;20044;-68
2023/02/22 06:09:42;;;;;;;50.80;25.17;;;;;;;;;;5090552;28;20482;-69
2023/02/22 06:12:09;;;;;;;52.70;25.58;;;;;;;;;;5091419;28;20487;-69
2023/02/22 06:14:35;;;;;;;54.15;26.65;;;;;;;;;;5090467;28;20508;-69
2023/02/22 06:17:01;;;;;;;56.58;27.73;;;;;;;;;;5097951;28;20039;-68
2023/02/22 06:19:27;;;;;;;56.13;26.33;;;;;;;;;;5098852;28;20059;-68
2023/02/22 06:21:55;;;;;;;56.15;27.77;;;;;;;;;;5083804;28;20497;-69
2023/02/22 06:24:21;;;;;;;56.78;28.38;;;;;;;;;;5094703;28;20058;-69
2023/02/22 06:26:54;;;;;;;58.92;28.23;;;;;;;;;;5082104;28;20052;-68
2023/02/22 06:29:20;;;;;;;55.72;27.48;;;;;;;;;;5080540;28;20641;-69
2023/02/22 06:31:46;;;;;;;62.15;30.58;;;;;;;;;;5084551;28;20050;-69
2023/02/22 06:34:12;;;;;;;59.70;30.80;;;;;;;;;;5100855;28;20054;-69
2023/02/22 06:36:38;;;;;;;64.43;33.47;;;;;;;;;;5102156;28;20399;-68
2023/02/22 06:39:05;;;;;;;65.68;31.77;;;;;;;;;;5101740;28;20555;-68
2023/02/22 06:41:31;;;;;;;63.80;30.92;;;;;;;;;;5102409;28;20399;-69
2023/02/22 06:43:57;;;;;;;62.55;31.67;;;;;;;;;;5102981;28;20035;-68
2023/02/22 06:46:23;;;;;;;63.10;32.08;;;;;;;;;;5085734;28;20104;-68
2023/02/22 06:48:50;;;;;;;68.88;31.70;;;;;;;;;;5102570;28;20062;-68
2023/02/22 06:51:16;;;;;;;67.82;33.33;;;;;;;;;;5099243;28;20049;-68
2023/02/22 06:53:43;;;;;;;68.35;34.13;;;;;;;;;;5100352;28;20116;-68
2023/02/22 06:56:09;;;;;;;81.03;39.22;;;;;;;;;;5092209;28;20399;-68
2023/02/22 06:58:35;;;;;;;81.53;39.05;;;;;;;;;;5092701;28;20185;-69
2023/02/22 07:01:02;;;;;;;77.10;36.97;;;;;;;;;;5101636;28;20061;-68
2023/02/22 07:03:28;;;;;;;84.50;38.72;;;;;;;;;;5093372;28;20048;-68
2023/02/22 07:05:54;;;;;;;86.72;40.72;;;;;;;;;;5095239;28;20522;-69
2023/02/22 07:08:21;;;;;;;81.43;38.95;;;;;;;;;;5098745;28;20050;-69
2023/02/22 07:10:49;;;;;;;91.72;41.70;;;;;;;;;;5098103;28;20062;-69
2023/02/22 07:13:15;;;;;;;89.07;43.38;;;;;;;;;;5099328;28;20031;-68
2023/02/22 07:15:41;;;;;;;94.07;45.25;;;;;;;;;;5098985;28;20044;-68
2023/02/22 07:18:07;;;;;;;88.25;42.50;;;;;;;;;;5095502;28;20088;-69
2023/02/22 07:20:34;;;;;;;94.70;44.13;;;;;;;;;;5096571;28;20051;-69
2023/02/22 07:23:00;;;;;;;92.28;44.97;;;;;;;;;;5093501;28;20063;-69
2023/02/22 07:25:26;;;;;;;97.78;45.05;;;;;;;;;;5096455;28;20047;-69
2023/02/22 07:27:52;;;;;;;99.72;44.92;;;;;;;;;;5099921;28;20471;-66
2023/02/22 07:30:29;;;;;;;97.10;44.97;;;;;;;;;;5084596;28;20105;-68
2023/02/22 07:32:55;;;;;;;108.03;47.05;;;;;;;;;;5099037;28;20522;-68
2023/02/22 07:35:22;;;;;;;108.35;49.28;;;;;;;;;;5099498;28;20052;-68
2023/02/22 07:37:48;;;;;;;105.85;47.85;;;;;;;;;;5095135;28;20075;-68
2023/02/22 07:40:14;;;;;;;107.55;49.45;;;;;;;;;;5094092;28;20063;-68
2023/02/22 07:42:50;;;;;;;105.30;48.92;;;;;;;;;;5094199;28;20052;-68
2023/02/22 07:45:17;;;;;;;110.13;50.95;;;;;;;;;;5093561;28;20064;-68
2023/02/22 07:47:43;;;;;;;112.35;48.92;;;;;;;;;;5080817;28;20558;-68
2023/02/22 07:50:09;;;;;;;112.38;51.63;;;;;;;;;;5097465;28;20062;-67
2023/02/22 07:52:35;;;;;;;118.03;51.63;;;;;;;;;;5097324;28;20055;-68
2023/02/22 07:55:02;;;;;;;117.22;52.95;;;;;;;;;;5103426;28;20493;-68
2023/02/22 07:57:28;;;;;;;116.05;52.00;;;;;;;;;;5100958;28;20135;-68
2023/02/22 07:59:54;;;;;;;113.40;51.45;;;;;;;;;;5097422;28;20035;-68
2023/02/22 08:02:20;;;;;;;112.63;52.08;;;;;;;;;;5076520;28;20065;-68
2023/02/22 08:04:47;;;;;;;117.68;52.97;;;;;;;;;;5078758;28;20163;-68
2023/02/22 08:07:13;;;;;;;126.03;54.13;;;;;;;;;;5080721;28;20046;-68
2023/02/22 08:09:39;;;;;;;124.10;54.35;;;;;;;;;;5084101;28;20031;-68
2023/02/22 08:12:05;;;;;;;126.03;55.28;;;;;;;;;;5098163;28;20044;-68
2023/02/22 08:14:31;;;;;;;120.07;53.63;;;;;;;;;;5099642;28;20074;-68
2023/02/22 08:16:58;;;;;;;126.28;55.33;;;;;;;;;;5100873;28;20039;-68
2023/02/22 08:19:24;;;;;;;127.28;55.95;;;;;;;;;;5077758;28;20035;-68
2023/02/22 08:21:50;;;;;;;129.93;55.88;;;;;;;;;;5081329;28;20050;-68
2023/02/22 08:24:16;;;;;;;128.73;59.10;;;;;;;;;;5080797;28;20055;-68
2023/02/22 08:26:44;;;;;;;138.25;55.55;;;;;;;;;;5079414;28;20043;-68
2023/02/22 08:29:10;;;;;;;132.68;59.13;;;;;;;;;;5080371;28;20055;-68
2023/02/22 08:31:36;;;;;;;133.23;57.88;;;;;;;;;;5080312;28;20046;-68
2023/02/22 08:34:02;;;;;;;139.40;58.60;;;;;;;;;;5082435;28;20047;-68
2023/02/22 08:36:29;;;;;;;129.98;57.88;;;;;;;;;;5097284;28;20040;-68
2023/02/22 08:38:55;;;;;;;147.85;58.35;;;;;;;;;;5100056;28;20056;-68
2023/02/22 08:41:21;;;;;;;141.48;57.88;;;;;;;;;;5100542;28;20051;-67
2023/02/22 08:43:47;;;;;;;142.88;60.63;;;;;;;;;;5099054;28;20044;-68
2023/02/22 08:46:15;;;;;;;139.02;59.13;;;;;;;;;;5103023;28;20040;-68
2023/02/22 08:48:49;;;;;;;132.80;58.63;;;;;;;;;;5074699;28;20071;-68
2023/02/22 08:51:15;;;;;;;141.40;61.40;;;;;;;;;;5101309;28;20044;-68
2023/02/22 08:53:41;;;;;;;151.55;61.63;;;;;;;;;;5091700;28;20139;-68
2023/02/22 08:56:08;;;;;;;144.35;60.30;;;;;;;;;;5094592;28;20064;-68
2023/02/22 08:58:34;;;;;;;152.98;63.70;;;;;;;;;;5095547;28;20036;-68
2023/02/22 09:01:00;;;;;;;151.30;62.70;;;;;;;;;;5093260;28;20040;-67
2023/02/22 09:03:27;;;;;;;143.98;60.15;;;;;;;;;;5092902;28;20372;-68
2023/02/22 09:05:53;;;;;;;144.18;60.97;;;;;;;;;;5093784;28;20044;-68
2023/02/22 09:08:19;;;;;;;145.88;57.38;;;;;;;;;;5093706;28;20040;-68
2023/02/22 09:10:45;;;;;;;144.63;63.22;;;;;;;;;;5094073;28;20169;-68
2023/02/22 09:13:12;;;;;;;150.15;65.05;;;;;;;;;;5080939;28;20047;-67
2023/02/22 09:15:38;;;;;;;161.45;63.38;;;;;;;;;;5073163;28;20088;-68
2023/02/22 09:18:07;;;;;;;156.63;64.75;;;;;;;;;;5079263;28;20048;-67
2023/02/22 09:20:34;;;;;;;156.32;63.78;;;;;;;;;;5079960;28;20447;-66
2023/02/22 09:23:02;;;;;;;156.90;63.50;;;;;;;;;;5076689;28;20044;-67
2023/02/22 09:25:28;;;;;;;158.45;66.88;;;;;;;;;;5096275;28;20050;-67
2023/02/22 09:27:56;;;;;;;154.25;63.75;;;;;;;;;;5096209;28;20032;-68
2023/02/22 09:30:23;;;;;;;144.85;61.28;;;;;;;;;;5098843;28;20036;-67
2023/02/22 09:32:50;;;;;;;144.40;57.75;;;;;;;;;;5098281;28;20520;-67
2023/02/22 09:35:17;;;;;;;148.25;61.83;;;;;;;;;;5097788;28;20051;-68
2023/02/22 09:37:43;;;;;;;149.82;63.90;;;;;;;;;;5098314;28;20490;-68
2023/02/22 09:40:16;;;;;;;140.75;60.00;;;;;;;;;;5092881;28;20377;-68
2023/02/22 09:42:49;;;;;;;144.95;62.08;;;;;;;;;;5100990;28;20056;-68
2023/02/22 09:45:20;;;;;;;150.80;63.63;;;;;;;;;;5081629;28;20036;-68
2023/02/22 09:47:55;;;;;;;153.65;66.22;;;;;;;;;;5102312;28;20456;-68
2023/02/22 09:50:24;;;;;;;145.50;61.88;;;;;;;;;;5100283;28;20044;-68
2023/02/22 09:52:52;;;;;;;151.68;61.83;;;;;;;;;;5094841;28;20112;-67
2023/02/22 09:55:29;;;;;;;148.77;62.10;;;;;;;;;;5096901;28;20442;-68
2023/02/22 09:57:57;;;;;;;146.73;60.22;;;;;;;;;;5096996;28;20488;-67
2023/02/22 10:00:28;;;;;;;151.00;61.47;;;;;;;;;;5097520;28;20055;-66
2023/02/22 10:03:05;;;;;;;148.38;61.95;;;;;;;;;;5086467;28;20044;-74
2023/02/22 10:05:32;;;;;;;153.15;62.65;;;;;;;;;;5082530;28;20044;-67
2023/02/22 10:07:58;;;;;;;152.60;64.80;;;;;;;;;;5082126;28;21693;-67
2023/02/22 10:10:26;;;;;;;144.88;61.10;;;;;;;;;;5102036;28;20035;-67
2023/02/22 10:13:01;;;;;;;140.73;61.67;;;;;;;;;;5098888;28;20031;-67
2023/02/22 10:15:28;;;;;;;147.57;63.47;;;;;;;;;;5101502;28;20039;-75
2023/02/22 10:18:07;;;;;;;130.98;57.65;;;;;;;;;;5065016;28;20111;-67
2023/02/22 10:20:37;;;;;;;133.48;59.97;;;;;;;;;;5096016;28;20071;-67
2023/02/22 10:23:12;;;;;;;133.35;58.45;;;;;;;;;;5084412;28;20475;-68
2023/02/22 10:25:39;;;;;;;130.27;56.65;;;;;;;;;;5098130;28;20829;-77
2023/02/22 10:28:20;;;;;;;134.60;58.58;;;;;;;;;;5099422;28;20480;-68
2023/02/22 10:30:53;;;;;;;126.60;57.67;;;;;;;;;;5075706;28;21227;-67
2023/02/22 10:33:21;;;;;;;141.87;59.07;;;;;;;;;;5096561;28;20503;-67
2023/02/22 10:35:48;;;;;;;131.60;57.40;;;;;;;;;;5100927;28;20298;-67
2023/02/22 10:38:19;;;;;;;120.05;56.60;;;;;;;;;;5097158;28;20036;-68
2023/02/22 10:40:48;;;;;;;120.53;56.28;;;;;;;;;;5081052;28;20081;-67
2023/02/22 10:43:15;;;;;;;128.90;57.22;;;;;;;;;;5078640;28;20056;-68
2023/02/22 10:45:41;;;;;;;115.13;53.20;;;;;;;;;;5093839;28;20122;-68
2023/02/22 10:48:10;;;;;;;122.18;55.22;;;;;;;;;;5098884;28;20189;-68
2023/02/22 10:50:39;;;;;;;118.07;53.70;;;;;;;;;;5095914;28;20044;-68
2023/02/22 10:53:06;;;;;;;120.20;55.40;;;;;;;;;;5097717;28;20039;-67
2023/02/22 10:55:32;;;;;;;124.15;54.65;;;;;;;;;;5095069;28;20059;-67
2023/02/22 10:58:00;;;;;;;133.65;56.80;;;;;;;;;;5076852;28;20652;-67
2023/02/22 11:00:28;;;;;;;122.07;54.28;;;;;;;;;;5097783;28;20480;-67
2023/02/22 11:02:57;;;;;;;117.22;53.13;;;;;;;;;;5078849;28;20553;-67
2023/02/22 11:05:31;;;;;;;123.47;55.78;;;;;;;;;;5094305;28;20328;-67
2023/02/22 11:08:15;;;;;;;116.65;53.42;;;;;;;;;;5096447;28;20039;-67
2023/02/22 11:10:43;;;;;;;;;;;;;;;;;;5096972;28;20440;-67
2023/02/22 11:13:30;;;;;;;113.93;51.08;;;;;;;;;;5095238;28;19973;-67
2023/02/22 11:16:00;;;;;;;109.40;53.95;;;;;;;;;;5090583;28;20036;-67
2023/02/22 11:18:29;;;;;;;122.30;55.33;;;;;;;;;;5097629;28;20145;-67
2023/02/22 11:20:59;;;;;;;115.13;53.28;;;;;;;;;;5079843;28;20393;-67
2023/02/22 11:23:25;;;;;;;114.00;52.45;;;;;;;;;;5096871;28;20742;-67
2023/02/22 11:26:00;;;;;;;125.68;56.15;;;;;;;;;;5097719;28;20075;-67
2023/02/22 11:28:31;;;;;;;116.20;53.92;;;;;;;;;;5091732;28;20048;-67
2023/02/22 11:31:08;;;;;;;123.55;53.63;;;;;;;;;;5081900;28;20393;-67
2023/02/22 11:33:34;;;;;;;132.02;57.03;;;;;;;;;;5096325;28;20126;-67
2023/02/22 11:36:03;;;;;;;120.18;53.10;;;;;;;;;;5094144;28;20474;-67
2023/02/22 11:38:32;;;;;;;120.43;54.22;;;;;;;;;;5090991;28;20056;-67
2023/02/22 11:41:05;;;;;;;109.28;51.03;;;;;;;;;;5093799;28;20031;-67
2023/02/22 11:43:31;;;;;;;120.28;52.85;;;;;;;;;;5093013;28;20058;-67
2023/02/22 11:46:07;;;;;;;111.55;52.47;;;;;;;;;;5073696;28;20044;-67
2023/02/22 11:48:35;;;;;;;115.13;51.95;;;;;;;;;;5095885;28;20427;-68
2023/02/22 11:51:03;;;;;;;112.93;49.92;;;;;;;;;;5092474;28;20368;-68
2023/02/22 11:53:36;;;;;;;123.10;53.38;;;;;;;;;;5093569;28;20126;-68
2023/02/22 11:56:17;;;;;;;116.13;50.83;;;;;;;;;;5094721;28;20074;-68
2023/02/22 11:58:49;;;;;;;114.50;52.78;;;;;;;;;;5074440;28;20403;-68
2023/02/22 12:01:19;;;;;;;122.47;51.42;;;;;;;;;;5074661;28;20055;-68
2023/02/22 12:04:04;;;;;;;109.35;46.75;;;;;;;;;;5074385;28;20060;-67
2023/02/22 12:06:42;;;;;;;110.88;48.85;;;;;;;;;;5092820;28;20053;-67
2023/02/22 12:09:31;;;;;;;117.82;50.92;;;;;;;;;;5077210;28;20127;-68
2023/02/22 12:12:06;;;;;;;117.88;52.47;;;;;;;;;;5096834;28;20047;-67
2023/02/22 12:14:33;;;;;;;122.53;51.33;;;;;;;;;;5094030;28;20043;-67
2023/02/22 12:17:03;;;;;;;122.40;52.35;;;;;;;;;;5077133;28;20043;-67
2023/02/22 12:19:29;;;;;;;124.57;51.53;;;;;;;;;;5093729;28;20044;-67
2023/02/22 12:21:58;;;;;;;119.53;49.80;;;;;;;;;;5093416;28;20052;-67
2023/02/22 12:24:28;;;;;;;119.63;49.90;;;;;;;;;;5094267;28;20062;-68
2023/02/22 12:27:00;;;;;;;113.75;49.55;;;;;;;;;;5093564;28;20075;-67
2023/02/22 12:29:31;;;;;;;116.57;49.35;;;;;;;;;;5094809;28;20104;-68
2023/02/22 12:32:02;;;;;;;116.93;47.60;;;;;;;;;;5099276;28;20375;-67
2023/02/22 12:34:40;;;;;;;112.88;46.08;;;;;;;;;;5092915;28;20070;-67
2023/02/22 12:37:21;;;;;;;120.18;48.60;;;;;;;;;;5096423;28;20035;-67
2023/02/22 12:39:56;;;;;;;122.85;49.28;;;;;;;;;;5094416;28;20043;-67
2023/02/22 12:42:28;;;;;;;120.40;46.60;;;;;;;;;;5093712;28;20060;-68
2023/02/22 12:44:57;;;;;;;120.00;46.33;;;;;;;;;;5093390;28;20040;-68
2023/02/22 12:47:28;;;;;;;114.65;47.35;;;;;;;;;;5096117;28;20035;-68
2023/02/22 12:50:18;;;;;;;123.22;47.25;;;;;;;;;;5093795;28;20032;-68
2023/02/22 12:52:48;;;;;;;120.78;45.75;;;;;;;;;;5078628;28;21889;-68
2023/02/22 12:55:18;;;;;;;135.30;48.42;;;;;;;;;;5092321;28;20056;-68
2023/02/22 12:57:53;;;;;;;120.65;46.00;;;;;;;;;;5092369;28;20039;-77
2023/02/22 13:00:25;;;;;;;129.77;47.95;;;;;;;;;;5075184;28;21432;-83
2023/02/22 13:02:58;;;;;;;128.68;47.95;;;;;;;;;;5074563;28;21198;-78
2023/02/22 13:05:24;;;;;;;132.68;49.78;;;;;;;;;;5090430;28;20136;-78
2023/02/22 13:07:53;;;;;;;140.13;50.65;;;;;;;;;;5088752;28;20040;-77
2023/02/22 13:10:26;;;;;;;140.10;49.95;;;;;;;;;;5088391;28;20040;-78
2023/02/22 13:12:56;;;;;;;140.73;51.05;;;;;;;;;;5080320;28;20129;-77
2023/02/22 13:15:25;;;;;;;136.52;49.22;;;;;;;;;;5083764;28;20173;-78
2023/02/22 13:18:00;;;;;;;145.70;50.78;;;;;;;;;;5061400;28;20036;-78
2023/02/22 13:20:34;;;;;;;135.05;49.50;;;;;;;;;;5079467;28;20051;-78
2023/02/22 13:23:00;;;;;;;;;;;;;;;;;;5079655;28;20062;-78
2023/02/22 13:25:42;;;;;;;132.10;48.72;;;;;;;;;;5097268;28;19919;-78
2023/02/22 13:28:13;;;;;;;143.23;49.65;;;;;;;;;;5097776;28;20039;-78
2023/02/22 13:30:44;;;;;;;134.07;47.55;;;;;;;;;;5094854;28;20059;-78
2023/02/22 13:33:13;;;;;;;142.98;48.35;;;;;;;;;;5074712;28;20104;-78
2023/02/22 13:35:47;;;;;;;138.05;49.70;;;;;;;;;;5076175;28;20063;-78
2023/02/22 13:38:19;;;;;;;135.95;47.45;;;;;;;;;;5090177;28;20380;-78
2023/02/22 13:40:52;;;;;;;139.30;50.08;;;;;;;;;;5091434;28;20492;-78
2023/02/22 13:43:37;;;;;;;132.23;48.67;;;;;;;;;;5074630;28;20457;-77
2023/02/22 13:46:11;;;;;;;148.20;49.15;;;;;;;;;;5069623;28;20040;-78
2023/02/22 13:48:51;;;;;;;140.38;48.63;;;;;;;;;;5072206;28;20056;-77
2023/02/22 13:51:30;;;;;;;153.70;49.42;;;;;;;;;;5089814;28;20035;-77
2023/02/22 13:53:58;;;;;;;149.88;50.75;;;;;;;;;;5074871;28;20403;-77
2023/02/22 13:56:24;;;;;;;158.75;51.60;;;;;;;;;;5095108;28;20093;-73
2023/02/22 13:58:52;;;;;;;146.43;50.22;;;;;;;;;;5072159;28;20418;-76
2023/02/22 14:01:38;;;;;;;150.10;49.60;;;;;;;;;;5081356;28;20194;-75
2023/02/22 14:04:28;;;;;;;147.27;50.10;;;;;;;;;;5078794;28;20051;-76
2023/02/22 14:06:58;;;;;;;155.50;51.13;;;;;;;;;;5071362;28;20071;-76
2023/02/22 14:09:37;;;;;;;151.13;49.70;;;;;;;;;;5093102;28;20089;-76
2023/02/22 14:12:03;;;;;;;146.77;48.45;;;;;;;;;;5077793;28;20521;-75
2023/02/22 14:14:30;;;;;;;144.27;49.00;;;;;;;;;;5073621;28;20062;-76
2023/02/22 14:17:20;;;;;;;147.20;48.83;;;;;;;;;;5092221;28;20044;-75
2023/02/22 14:20:00;;;;;;;139.60;47.83;;;;;;;;;;5091462;28;20052;-74
2023/02/22 14:22:28;;;;;;;155.38;49.97;;;;;;;;;;5061261;28;20123;-76